sensor_id;sensor_type;location;lat;lon;timestamp;P1;durP1;ratioP1;P2;durP2;ratioP2
595;SDS011;19946;49.306;11.350;2023-03-01T00:17:18;0.60;;;0.60;;
595;SDS011;19946;49.306;11.350;2023-03-01T00:20:21;0.50;;;0.50;;
595;SDS011;19946;49.306;11.350;2023-03-01T00:23:22;0.60;;;0.60;;
595;SDS011;19946;49.306;11.350;2023-03-01T00:59:21;0.80;;;0.80;;
595;SDS011;19946;49.306;11.350;2023-03-01T11:25:25;1.20;;;1.20;;
595;SDS011;19946;49.306;11.350;2023-03-01T11:28:31;0.90;;;0.90;;
595;SDS011;19946;49.306;11.350;2023-03-01T11:31:36;0.80;;;0.80;;
595;SDS011;19946;49.306;11.350;2023-03-01T11:34:46;0.70;;;0.70;;
595;SDS011;19946;49.306;11.350;2023-03-01T11:41:30;0.80;;;0.80;;
595;SDS011;19946;49.306;11.350;2023-03-01T11:44:35;0.80;;;0.80;;
595;SDS011;19946;49.306;11.350;2023-03-01T16:25:52;0.40;;;0.40;;
595;SDS011;19946;49.306;11.350;2023-03-01T16:29:00;0.40;;;0.40;;
595;SDS011;19946;49.306;11.350;2023-03-01T17:28:49;0.40;;;0.40;;
595;SDS011;19946;49.306;11.350;2023-03-01T17:31:51;0.43;;;0.43;;
595;SDS011;19946;49.306;11.350;2023-03-01T17:34:56;0.30;;;0.30;;
595;SDS011;19946;49.306;11.350;2023-03-01T17:37:57;0.30;;;0.30;;
595;SDS011;19946;49.306;11.350;2023-03-01T17:41:04;0.40;;;0.40;;
595;SDS011;19946;49.306;11.350;2023-03-01T17:44:08;0.40;;;0.40;;
595;SDS011;19946;49.306;11.350;2023-03-01T17:47:08;0.30;;;0.30;;
595;SDS011;19946;49.306;11.350;2023-03-01T17:50:17;0.30;;;0.30;;
595;SDS011;19946;49.306;11.350;2023-03-01T17:53:21;0.37;;;0.37;;
595;SDS011;19946;49.306;11.350;2023-03-01T17:56:24;0.30;;;0.30;;
595;SDS011;19946;49.306;11.350;2023-03-01T18:06:16;0.40;;;0.40;;
595;SDS011;19946;49.306;11.350;2023-03-01T18:09:19;0.40;;;0.40;;
595;SDS011;19946;49.306;11.350;2023-03-01T18:12:21;0.37;;;0.37;;
595;SDS011;19946;49.306;11.350;2023-03-01T18:15:24;0.37;;;0.37;;
595;SDS011;19946;49.306;11.350;2023-03-01T18:18:26;0.50;;;0.50;;
595;SDS011;19946;49.306;11.350;2023-03-01T18:21:30;0.40;;;0.40;;
595;SDS011;19946;49.306;11.350;2023-03-01T18:24:36;0.30;;;0.30;;
595;SDS011;19946;49.306;11.350;2023-03-01T18:27:40;0.40;;;0.40;;
595;SDS011;19946;49.306;11.350;2023-03-01T18:30:41;0.40;;;0.40;;
595;SDS011;19946;49.306;11.350;2023-03-01T18:33:43;0.40;;;0.40;;
595;SDS011;19946;49.306;11.350;2023-03-01T18:36:45;0.50;;;0.50;;
595;SDS011;19946;49.306;11.350;2023-03-01T18:40:04;0.40;;;0.40;;
595;SDS011;19946;49.306;11.350;2023-03-01T18:43:07;0.30;;;0.30;;
595;SDS011;19946;49.306;11.350;2023-03-01T18:46:08;0.40;;;0.40;;
595;SDS011;19946;49.306;11.350;2023-03-01T18:52:32;0.30;;;0.30;;
595;SDS011;19946;49.306;11.350;2023-03-01T18:58:52;0.40;;;0.40;;
595;SDS011;19946;49.306;11.350;2023-03-01T19:01:56;0.30;;;0.30;;
595;SDS011;19946;49.306;11.350;2023-03-01T19:08:23;0.40;;;0.40;;
595;SDS011;19946;49.306;11.350;2023-03-01T19:11:26;0.40;;;0.40;;
595;SDS011;19946;49.306;11.350;2023-03-01T19:14:30;0.40;;;0.40;;
595;SDS011;19946;49.306;11.350;2023-03-01T19:24:11;0.40;;;0.40;;
595;SDS011;19946;49.306;11.350;2023-03-01T19:27:12;0.40;;;0.40;;
595;SDS011;19946;49.306;11.350;2023-03-01T19:30:15;0.30;;;0.30;;
595;SDS011;19946;49.306;11.350;2023-03-01T19:33:16;0.40;;;0.40;;
595;SDS011;19946;49.306;11.350;2023-03-01T19:36:18;0.40;;;0.40;;
595;SDS011;19946;49.306;11.350;2023-03-01T19:39:44;0.40;;;0.40;;
595;SDS011;19946;49.306;11.350;2023-03-01T19:42:48;0.30;;;0.30;;
595;SDS011;19946;49.306;11.350;2023-03-01T19:45:53;0.40;;;0.40;;
595;SDS011;19946;49.306;11.350;2023-03-01T19:48:56;0.40;;;0.40;;
595;SDS011;19946;49.306;11.350;2023-03-01T19:52:00;0.50;;;0.50;;
595;SDS011;19946;49.306;11.350;2023-03-01T19:55:04;0.37;;;0.37;;
595;SDS011;19946;49.306;11.350;2023-03-01T19:58:06;0.40;;;0.40;;
595;SDS011;19946;49.306;11.350;2023-03-01T20:01:13;0.43;;;0.43;;
595;SDS011;19946;49.306;11.350;2023-03-01T20:04:18;0.40;;;0.40;;
595;SDS011;19946;49.306;11.350;2023-03-01T20:07:21;0.40;;;0.40;;
595;SDS011;19946;49.306;11.350;2023-03-01T20:13:48;0.30;;;0.30;;
595;SDS011;19946;49.306;11.350;2023-03-01T20:16:52;0.30;;;0.30;;
595;SDS011;19946;49.306;11.350;2023-03-01T20:23:17;0.40;;;0.40;;
595;SDS011;19946;49.306;11.350;2023-03-01T20:26:21;0.40;;;0.40;;
595;SDS011;19946;49.306;11.350;2023-03-01T20:29:24;0.40;;;0.40;;
595;SDS011;19946;49.306;11.350;2023-03-01T20:32:29;0.30;;;0.30;;
595;SDS011;19946;49.306;11.350;2023-03-01T20:35:31;0.40;;;0.40;;
595;SDS011;19946;49.306;11.350;2023-03-01T20:38:36;0.40;;;0.40;;
595;SDS011;19946;49.306;11.350;2023-03-01T20:41:38;0.40;;;0.40;;
595;SDS011;19946;49.306;11.350;2023-03-01T20:47:59;0.40;;;0.40;;
595;SDS011;19946;49.306;11.350;2023-03-01T20:51:09;0.40;;;0.40;;
595;SDS011;19946;49.306;11.350;2023-03-01T20:54:24;0.40;;;0.40;;
595;SDS011;19946;49.306;11.350;2023-03-01T20:57:30;0.40;;;0.40;;
595;SDS011;19946;49.306;11.350;2023-03-01T21:00:31;0.40;;;0.40;;
595;SDS011;19946;49.306;11.350;2023-03-01T21:03:32;0.40;;;0.40;;
595;SDS011;19946;49.306;11.350;2023-03-01T21:06:33;0.40;;;0.40;;
595;SDS011;19946;49.306;11.350;2023-03-01T21:09:35;0.40;;;0.40;;
595;SDS011;19946;49.306;11.350;2023-03-01T21:12:36;0.40;;;0.40;;
595;SDS011;19946;49.306;11.350;2023-03-01T21:15:39;0.40;;;0.40;;
595;SDS011;19946;49.306;11.350;2023-03-01T21:18:43;0.40;;;0.40;;
595;SDS011;19946;49.306;11.350;2023-03-01T21:21:46;0.30;;;0.30;;
595;SDS011;19946;49.306;11.350;2023-03-01T21:24:47;0.40;;;0.40;;
595;SDS011;19946;49.306;11.350;2023-03-01T21:27:51;0.40;;;0.40;;
595;SDS011;19946;49.306;11.350;2023-03-01T21:30:52;0.40;;;0.40;;
595;SDS011;19946;49.306;11.350;2023-03-01T21:33:56;0.30;;;0.30;;
595;SDS011;19946;49.306;11.350;2023-03-01T21:36:59;0.40;;;0.40;;
595;SDS011;19946;49.306;11.350;2023-03-01T21:40:01;0.40;;;0.40;;
595;SDS011;19946;49.306;11.350;2023-03-01T21:43:04;0.40;;;0.40;;
595;SDS011;19946;49.306;11.350;2023-03-01T21:46:08;0.40;;;0.40;;
595;SDS011;19946;49.306;11.350;2023-03-01T21:49:12;0.43;;;0.43;;
595;SDS011;19946;49.306;11.350;2023-03-01T21:52:13;0.40;;;0.40;;
595;SDS011;19946;49.306;11.350;2023-03-01T21:55:19;0.40;;;0.40;;
595;SDS011;19946;49.306;11.350;2023-03-01T21:58:29;0.40;;;0.40;;
595;SDS011;19946;49.306;11.350;2023-03-01T22:08:05;0.40;;;0.40;;
595;SDS011;19946;49.306;11.350;2023-03-01T22:14:50;0.40;;;0.40;;
595;SDS011;19946;49.306;11.350;2023-03-01T22:17:51;0.40;;;0.40;;
595;SDS011;19946;49.306;11.350;2023-03-01T22:20:53;0.43;;;0.43;;
595;SDS011;19946;49.306;11.350;2023-03-01T22:23:54;0.40;;;0.40;;
595;SDS011;19946;49.306;11.350;2023-03-01T22:26:55;0.40;;;0.40;;
595;SDS011;19946;49.306;11.350;2023-03-01T22:30:00;0.50;;;0.50;;
595;SDS011;19946;49.306;11.350;2023-03-01T22:33:01;0.40;;;0.40;;
595;SDS011;19946;49.306;11.350;2023-03-01T22:36:06;0.40;;;0.40;;
595;SDS011;19946;49.306;11.350;2023-03-01T22:39:10;0.40;;;0.40;;
595;SDS011;19946;49.306;11.350;2023-03-01T22:42:25;0.40;;;0.40;;
595;SDS011;19946;49.306;11.350;2023-03-01T22:52:05;0.50;;;0.50;;
595;SDS011;19946;49.306;11.350;2023-03-01T22:55:11;0.40;;;0.40;;
595;SDS011;19946;49.306;11.350;2023-03-01T22:58:12;0.40;;;0.40;;
595;SDS011;19946;49.306;11.350;2023-03-01T23:01:18;0.50;;;0.50;;
595;SDS011;19946;49.306;11.350;2023-03-01T23:04:20;0.50;;;0.50;;
595;SDS011;19946;49.306;11.350;2023-03-01T23:07:27;0.57;;;0.57;;
595;SDS011;19946;49.306;11.350;2023-03-01T23:10:28;0.40;;;0.40;;
595;SDS011;19946;49.306;11.350;2023-03-01T23:13:33;0.40;;;0.40;;
595;SDS011;19946;49.306;11.350;2023-03-01T23:16:36;0.40;;;0.40;;
595;SDS011;19946;49.306;11.350;2023-03-01T23:19:39;0.40;;;0.40;;
595;SDS011;19946;49.306;11.350;2023-03-01T23:22:40;0.30;;;0.30;;
595;SDS011;19946;49.306;11.350;2023-03-01T23:29:08;0.40;;;0.40;;
595;SDS011;19946;49.306;11.350;2023-03-01T23:32:11;0.43;;;0.43;;
595;SDS011;19946;49.306;11.350;2023-03-01T23:35:13;0.40;;;0.40;;
595;SDS011;19946;49.306;11.350;2023-03-01T23:41:36;0.40;;;0.40;;
595;SDS011;19946;49.306;11.350;2023-03-01T23:44:41;0.40;;;0.40;;
595;SDS011;19946;49.306;11.350;2023-03-01T23:47:45;0.40;;;0.40;;
595;SDS011;19946;49.306;11.350;2023-03-01T23:50:47;0.37;;;0.37;;
595;SDS011;19946;49.306;11.350;2023-03-01T23:53:50;0.40;;;0.40;;
595;SDS011;19946;49.306;11.350;2023-03-01T23:56:54;0.40;;;0.40;;
595;SDS011;19946;49.306;11.350;2023-03-01T23:59:57;0.40;;;0.40;;
